sensor_id;sensor_type;location;lat;lon;timestamp;pressure;altitude;pressure_sealevel;temperature;humidity
52105;BME280;38103;42.776;23.112;2023-04-28T00:00:24;94167.16;;;3.77;66.36
52105;BME280;38103;42.776;23.112;2023-04-28T00:02:49;94163.28;;;3.73;66.52
52105;BME280;38103;42.776;23.112;2023-04-28T00:05:15;94168.28;;;3.67;66.84
52105;BME280;38103;42.776;23.112;2023-04-28T00:07:40;94169.44;;;3.65;66.86
52105;BME280;38103;42.776;23.112;2023-04-28T00:10:06;94168.84;;;3.63;66.87
52105;BME280;38103;42.776;23.112;2023-04-28T00:12:32;94173.25;;;3.62;66.86
52105;BME280;38103;42.776;23.112;2023-04-28T00:14:57;94169.66;;;3.63;67.21
52105;BME280;38103;42.776;23.112;2023-04-28T00:17:22;94174.88;;;3.63;66.97
52105;BME280;38103;42.776;23.112;2023-04-28T00:19:49;94185.34;;;3.63;67.06
52105;BME280;38103;42.776;23.112;2023-04-28T00:22:14;94177.84;;;3.60;67.13
52105;BME280;38103;42.776;23.112;2023-04-28T00:24:40;94177.59;;;3.55;66.95
52105;BME280;38103;42.776;23.112;2023-04-28T00:27:06;94179.19;;;3.56;67.09
52105;BME280;38103;42.776;23.112;2023-04-28T00:29:31;94172.38;;;3.55;66.99
52105;BME280;38103;42.776;23.112;2023-04-28T00:31:57;94175.34;;;3.52;66.66
52105;BME280;38103;42.776;23.112;2023-04-28T00:34:22;94184.16;;;3.51;66.75
52105;BME280;38103;42.776;23.112;2023-04-28T00:36:47;94178.31;;;3.49;66.43
52105;BME280;38103;42.776;23.112;2023-04-28T00:39:14;94137.75;;;3.16;66.23
52105;BME280;38103;42.776;23.112;2023-04-28T00:41:40;94190.72;;;3.40;66.42
52105;BME280;38103;42.776;23.112;2023-04-28T00:44:05;94188.25;;;3.38;66.24
52105;BME280;38103;42.776;23.112;2023-04-28T00:46:32;94185.47;;;3.40;66.36
52105;BME280;38103;42.776;23.112;2023-04-28T00:48:58;94184.66;;;3.39;66.14
52105;BME280;38103;42.776;23.112;2023-04-28T00:51:24;94187.63;;;3.36;66.34
52105;BME280;38103;42.776;23.112;2023-04-28T00:53:50;94149.75;;;3.10;66.42
52105;BME280;38103;42.776;23.112;2023-04-28T00:56:16;94183.41;;;3.35;66.27
52105;BME280;38103;42.776;23.112;2023-04-28T00:58:42;94183.41;;;3.35;66.38
52105;BME280;38103;42.776;23.112;2023-04-28T01:01:08;94180.63;;;3.37;66.22
52105;BME280;38103;42.776;23.112;2023-04-28T01:03:37;94188.38;;;3.30;66.41
52105;BME280;38103;42.776;23.112;2023-04-28T01:06:04;94185.31;;;3.26;66.71
52105;BME280;38103;42.776;23.112;2023-04-28T01:08:31;94142.56;;;2.97;66.55
52105;BME280;38103;42.776;23.112;2023-04-28T01:10:57;94194.06;;;3.18;67.37
52105;BME280;38103;42.776;23.112;2023-04-28T01:13:22;94186.22;;;3.18;67.30
52105;BME280;38103;42.776;23.112;2023-04-28T01:15:48;94197.66;;;3.17;67.36
52105;BME280;38103;42.776;23.112;2023-04-28T01:18:15;94187.50;;;3.07;68.11
52105;BME280;38103;42.776;23.112;2023-04-28T01:20:41;94188.31;;;3.08;68.11
52105;BME280;38103;42.776;23.112;2023-04-28T01:23:13;94194.69;;;3.05;68.18
52105;BME280;38103;42.776;23.112;2023-04-28T01:25:39;94150.13;;;2.76;68.18
52105;BME280;38103;42.776;23.112;2023-04-28T01:28:05;94193.53;;;3.08;68.11
52105;BME280;38103;42.776;23.112;2023-04-28T01:30:30;94188.84;;;3.03;68.77
52105;BME280;38103;42.776;23.112;2023-04-28T01:32:56;94195.88;;;3.03;68.18
52105;BME280;38103;42.776;23.112;2023-04-28T01:35:22;94169.97;;;2.86;68.36
52105;BME280;38103;42.776;23.112;2023-04-28T01:37:48;94201.09;;;3.03;68.35
52105;BME280;38103;42.776;23.112;2023-04-28T01:40:13;94196.88;;;3.01;69.14
52105;BME280;38103;42.776;23.112;2023-04-28T01:42:39;94197.88;;;3.00;68.35
52105;BME280;38103;42.776;23.112;2023-04-28T01:45:04;94200.41;;;2.94;68.76
52105;BME280;38103;42.776;23.112;2023-04-28T01:47:30;94193.06;;;2.89;68.79
52105;BME280;38103;42.776;23.112;2023-04-28T01:49:56;94206.78;;;2.91;68.94
52105;BME280;38103;42.776;23.112;2023-04-28T01:52:21;94204.19;;;2.91;68.89
52105;BME280;38103;42.776;23.112;2023-04-28T01:54:48;94208.13;;;2.87;69.35
52105;BME280;38103;42.776;23.112;2023-04-28T01:57:14;94204.44;;;2.81;69.25
52105;BME280;38103;42.776;23.112;2023-04-28T01:59:40;94204.69;;;2.71;70.01
52105;BME280;38103;42.776;23.112;2023-04-28T02:02:05;94201.81;;;2.66;70.14
52105;BME280;38103;42.776;23.112;2023-04-28T02:04:30;94188.56;;;2.52;70.22
52105;BME280;38103;42.776;23.112;2023-04-28T02:06:56;94141.53;;;2.22;70.85
52105;BME280;38103;42.776;23.112;2023-04-28T02:09:21;94202.69;;;2.58;70.46
52105;BME280;38103;42.776;23.112;2023-04-28T02:11:46;94205.69;;;2.55;70.22
52105;BME280;38103;42.776;23.112;2023-04-28T02:14:12;94205.22;;;2.51;70.23
52105;BME280;38103;42.776;23.112;2023-04-28T02:16:37;94212.41;;;2.49;70.61
52105;BME280;38103;42.776;23.112;2023-04-28T02:19:03;94211.13;;;2.45;70.58
52105;BME280;38103;42.776;23.112;2023-04-28T02:21:28;94212.28;;;2.42;70.36
52105;BME280;38103;42.776;23.112;2023-04-28T02:23:54;94218.69;;;2.40;70.38
52105;BME280;38103;42.776;23.112;2023-04-28T02:26:19;94221.47;;;2.38;70.89
52105;BME280;38103;42.776;23.112;2023-04-28T02:28:44;94223.66;;;2.34;70.85
52105;BME280;38103;42.776;23.112;2023-04-28T02:31:10;94227.03;;;2.35;70.65
52105;BME280;38103;42.776;23.112;2023-04-28T02:33:36;94166.06;;;1.97;70.35
52105;BME280;38103;42.776;23.112;2023-04-28T02:36:03;94225.06;;;2.37;70.38
52105;BME280;38103;42.776;23.112;2023-04-28T02:38:29;94219.06;;;2.37;70.24
52105;BME280;38103;42.776;23.112;2023-04-28T02:40:59;94225.88;;;2.38;69.93
52105;BME280;38103;42.776;23.112;2023-04-28T02:43:25;94170.09;;;2.00;70.35
52105;BME280;38103;42.776;23.112;2023-04-28T02:45:51;94233.41;;;2.32;70.59
52105;BME280;38103;42.776;23.112;2023-04-28T02:48:17;94233.41;;;2.32;70.84
52105;BME280;38103;42.776;23.112;2023-04-28T02:50:43;94232.16;;;2.28;70.58
52105;BME280;38103;42.776;23.112;2023-04-28T02:53:10;94236.56;;;2.28;71.15
52105;BME280;38103;42.776;23.112;2023-04-28T02:55:36;94228.44;;;2.22;70.75
52105;BME280;38103;42.776;23.112;2023-04-28T02:58:01;94239.00;;;2.29;70.75
52105;BME280;38103;42.776;23.112;2023-04-28T03:00:26;94238.19;;;2.29;70.34
52105;BME280;38103;42.776;23.112;2023-04-28T03:02:52;94240.63;;;2.30;70.55
52105;BME280;38103;42.776;23.112;2023-04-28T03:05:17;94236.41;;;2.29;70.89
52105;BME280;38103;42.776;23.112;2023-04-28T03:07:42;94240.00;;;2.28;70.93
52105;BME280;38103;42.776;23.112;2023-04-28T03:10:08;94240.88;;;2.20;71.14
52105;BME280;38103;42.776;23.112;2023-04-28T03:12:33;94242.50;;;2.21;71.09
52105;BME280;38103;42.776;23.112;2023-04-28T03:14:59;94250.03;;;2.16;71.60
52105;BME280;38103;42.776;23.112;2023-04-28T03:17:26;94244.34;;;2.12;71.76
52105;BME280;38103;42.776;23.112;2023-04-28T03:19:51;94209.00;;;1.86;71.92
52105;BME280;38103;42.776;23.112;2023-04-28T03:22:16;94260.34;;;2.09;72.16
52105;BME280;38103;42.776;23.112;2023-04-28T03:24:42;94255.47;;;2.06;72.05
52105;BME280;38103;42.776;23.112;2023-04-28T03:27:07;94263.81;;;2.01;72.44
52105;BME280;38103;42.776;23.112;2023-04-28T03:29:32;94263.00;;;2.01;72.53
52105;BME280;38103;42.776;23.112;2023-04-28T03:31:58;94271.47;;;2.03;72.27
52105;BME280;38103;42.776;23.112;2023-04-28T03:34:23;94273.44;;;2.01;72.64
52105;BME280;38103;42.776;23.112;2023-04-28T03:36:48;94280.28;;;2.02;72.50
52105;BME280;38103;42.776;23.112;2023-04-28T03:39:14;94277.97;;;2.07;72.74
52105;BME280;38103;42.776;23.112;2023-04-28T03:41:39;94283.75;;;2.18;71.83
52105;BME280;38103;42.776;23.112;2023-04-28T03:44:05;94283.88;;;2.25;71.50
52105;BME280;38103;42.776;23.112;2023-04-28T03:46:31;94295.00;;;2.42;71.49
52105;BME280;38103;42.776;23.112;2023-04-28T03:48:56;94287.31;;;2.64;70.58
52105;BME280;38103;42.776;23.112;2023-04-28T03:51:21;94301.22;;;2.79;69.82
52105;BME280;38103;42.776;23.112;2023-04-28T03:53:47;94301.53;;;3.00;68.87
52105;BME280;38103;42.776;23.112;2023-04-28T03:56:12;94307.03;;;3.20;68.57
52105;BME280;38103;42.776;23.112;2023-04-28T03:58:37;94313.16;;;3.43;67.75
52105;BME280;38103;42.776;23.112;2023-04-28T04:01:03;94308.22;;;3.63;66.73
52105;BME280;38103;42.776;23.112;2023-04-28T04:03:29;94308.88;;;3.87;65.83
52105;BME280;38103;42.776;23.112;2023-04-28T04:05:55;94278.56;;;3.93;64.80
52105;BME280;38103;42.776;23.112;2023-04-28T04:08:20;94306.03;;;4.41;63.72
52105;BME280;38103;42.776;23.112;2023-04-28T04:10:46;94312.34;;;4.69;62.36
52105;BME280;38103;42.776;23.112;2023-04-28T04:13:11;94307.66;;;4.93;61.46
52105;BME280;38103;42.776;23.112;2023-04-28T04:15:36;94312.22;;;5.13;60.71
52105;BME280;38103;42.776;23.112;2023-04-28T04:18:02;94313.25;;;5.41;59.95
52105;BME280;38103;42.776;23.112;2023-04-28T04:20:27;94319.81;;;5.65;58.91
52105;BME280;38103;42.776;23.112;2023-04-28T04:22:53;94322.34;;;5.87;58.54
52105;BME280;38103;42.776;23.112;2023-04-28T04:25:18;94317.81;;;6.17;57.52
52105;BME280;38103;42.776;23.112;2023-04-28T04:27:43;94317.28;;;6.48;56.90
52105;BME280;38103;42.776;23.112;2023-04-28T04:30:09;94320.56;;;6.85;56.07
52105;BME280;38103;42.776;23.112;2023-04-28T04:32:34;94320.16;;;7.08;54.93
52105;BME280;38103;42.776;23.112;2023-04-28T04:35:00;94324.41;;;7.09;53.78
52105;BME280;38103;42.776;23.112;2023-04-28T04:37:25;94319.75;;;7.18;54.01
52105;BME280;38103;42.776;23.112;2023-04-28T04:39:51;94328.25;;;7.20;54.05
52105;BME280;38103;42.776;23.112;2023-04-28T04:42:16;94322.56;;;7.37;54.34
52105;BME280;38103;42.776;23.112;2023-04-28T04:44:42;94327.78;;;7.57;54.44
52105;BME280;38103;42.776;23.112;2023-04-28T04:47:07;94324.94;;;7.59;53.48
52105;BME280;38103;42.776;23.112;2023-04-28T04:49:32;94330.19;;;7.66;53.93
52105;BME280;38103;42.776;23.112;2023-04-28T04:51:58;94330.97;;;7.80;53.73
52105;BME280;38103;42.776;23.112;2023-04-28T04:54:23;94335.38;;;7.86;53.26
52105;BME280;38103;42.776;23.112;2023-04-28T04:56:49;94344.69;;;7.89;53.62
52105;BME280;38103;42.776;23.112;2023-04-28T04:59:15;94342.56;;;8.18;52.96
52105;BME280;38103;42.776;23.112;2023-04-28T05:01:40;94345.84;;;8.59;51.70
52105;BME280;38103;42.776;23.112;2023-04-28T05:04:06;94344.97;;;8.98;51.26
52105;BME280;38103;42.776;23.112;2023-04-28T05:06:31;94335.72;;;9.40;50.10
52105;BME280;38103;42.776;23.112;2023-04-28T05:08:57;94343.34;;;9.67;48.76
52105;BME280;38103;42.776;23.112;2023-04-28T05:11:23;94347.19;;;9.90;48.07
52105;BME280;38103;42.776;23.112;2023-04-28T05:13:49;94343.66;;;9.97;48.88
52105;BME280;38103;42.776;23.112;2023-04-28T05:16:14;94345.25;;;9.98;48.37
52105;BME280;38103;42.776;23.112;2023-04-28T05:18:40;94346.44;;;10.02;47.33
52105;BME280;38103;42.776;23.112;2023-04-28T05:21:05;94348.66;;;9.86;46.88
52105;BME280;38103;42.776;23.112;2023-04-28T05:23:31;94344.81;;;10.01;47.57
52105;BME280;38103;42.776;23.112;2023-04-28T05:25:56;94338.88;;;10.05;47.07
52105;BME280;38103;42.776;23.112;2023-04-28T05:28:22;94325.31;;;10.02;46.73
52105;BME280;38103;42.776;23.112;2023-04-28T05:30:47;94344.00;;;10.38;47.01
52105;BME280;38103;42.776;23.112;2023-04-28T05:33:12;94335.28;;;10.49;46.99
52105;BME280;38103;42.776;23.112;2023-04-28T05:35:38;94321.94;;;10.44;46.39
52105;BME280;38103;42.776;23.112;2023-04-28T05:38:03;94349.63;;;10.42;47.08
52105;BME280;38103;42.776;23.112;2023-04-28T05:40:29;94341.28;;;10.26;46.53
52105;BME280;38103;42.776;23.112;2023-04-28T05:42:54;94330.16;;;10.05;46.24
52105;BME280;38103;42.776;23.112;2023-04-28T05:45:20;94311.97;;;9.97;46.40
52105;BME280;38103;42.776;23.112;2023-04-28T05:47:46;94347.56;;;10.44;48.53
52105;BME280;38103;42.776;23.112;2023-04-28T05:50:11;94348.91;;;10.34;46.66
52105;BME280;38103;42.776;23.112;2023-04-28T05:52:37;94345.84;;;10.19;47.06
52105;BME280;38103;42.776;23.112;2023-04-28T05:55:02;94343.78;;;10.21;45.86
52105;BME280;38103;42.776;23.112;2023-04-28T05:57:28;94344.25;;;10.17;46.53
52105;BME280;38103;42.776;23.112;2023-04-28T05:59:53;94327.19;;;10.13;47.36
52105;BME280;38103;42.776;23.112;2023-04-28T06:02:18;94340.22;;;10.15;47.27
52105;BME280;38103;42.776;23.112;2023-04-28T06:04:44;94343.34;;;10.24;46.53
52105;BME280;38103;42.776;23.112;2023-04-28T06:07:10;94337.63;;;10.27;45.71
52105;BME280;38103;42.776;23.112;2023-04-28T06:09:35;94342.63;;;10.16;44.62
52105;BME280;38103;42.776;23.112;2023-04-28T06:12:01;94342.81;;;10.34;45.62
52105;BME280;38103;42.776;23.112;2023-04-28T06:14:28;94337.88;;;10.56;45.70
52105;BME280;38103;42.776;23.112;2023-04-28T06:16:53;94346.53;;;10.64;46.00
52105;BME280;38103;42.776;23.112;2023-04-28T06:19:19;94342.75;;;10.71;45.06
52105;BME280;38103;42.776;23.112;2023-04-28T06:21:45;94342.00;;;10.52;45.24
52105;BME280;38103;42.776;23.112;2023-04-28T06:24:11;94350.00;;;10.76;46.30
52105;BME280;38103;42.776;23.112;2023-04-28T06:26:36;94338.56;;;11.06;45.34
52105;BME280;38103;42.776;23.112;2023-04-28T06:29:02;94312.81;;;11.14;46.11
52105;BME280;38103;42.776;23.112;2023-04-28T06:31:28;94343.91;;;11.55;42.88
52105;BME280;38103;42.776;23.112;2023-04-28T06:33:53;94332.25;;;11.68;43.19
52105;BME280;38103;42.776;23.112;2023-04-28T06:36:18;94343.22;;;11.71;41.64
52105;BME280;38103;42.776;23.112;2023-04-28T06:38:44;94327.28;;;11.95;42.57
52105;BME280;38103;42.776;23.112;2023-04-28T06:41:10;94344.19;;;12.06;41.41
52105;BME280;38103;42.776;23.112;2023-04-28T06:43:35;94349.00;;;12.22;43.05
52105;BME280;38103;42.776;23.112;2023-04-28T06:46:01;94347.41;;;12.21;40.33
52105;BME280;38103;42.776;23.112;2023-04-28T06:48:27;94351.66;;;12.22;41.10
52105;BME280;38103;42.776;23.112;2023-04-28T06:50:52;94345.22;;;12.17;40.50
52105;BME280;38103;42.776;23.112;2023-04-28T06:53:17;94351.91;;;12.08;42.46
52105;BME280;38103;42.776;23.112;2023-04-28T06:55:43;94304.50;;;11.70;41.96
52105;BME280;38103;42.776;23.112;2023-04-28T08:27:55;94333.34;;;14.50;36.42
52105;BME280;38103;42.776;23.112;2023-04-28T08:30:21;94336.31;;;14.31;38.35
52105;BME280;38103;42.776;23.112;2023-04-28T08:32:46;94334.09;;;14.23;38.54
52105;BME280;38103;42.776;23.112;2023-04-28T08:35:11;94322.91;;;14.21;34.51
52105;BME280;38103;42.776;23.112;2023-04-28T08:37:40;94302.25;;;13.83;34.83
52105;BME280;38103;42.776;23.112;2023-04-28T08:40:06;94327.00;;;14.06;35.96
52105;BME280;38103;42.776;23.112;2023-04-28T08:42:34;94324.59;;;14.04;37.60
52105;BME280;38103;42.776;23.112;2023-04-28T08:45:02;94331.75;;;14.04;38.15
52105;BME280;38103;42.776;23.112;2023-04-28T08:47:35;94324.81;;;14.25;37.59
52105;BME280;38103;42.776;23.112;2023-04-28T08:50:08;94324.59;;;14.27;38.21
52105;BME280;38103;42.776;23.112;2023-04-28T08:52:34;94325.34;;;14.22;35.01
52105;BME280;38103;42.776;23.112;2023-04-28T08:55:05;94286.75;;;13.97;36.00
52105;BME280;38103;42.776;23.112;2023-04-28T08:57:41;94325.00;;;14.18;36.45
52105;BME280;38103;42.776;23.112;2023-04-28T09:00:08;94317.59;;;14.21;36.54
52105;BME280;38103;42.776;23.112;2023-04-28T09:02:33;94315.00;;;14.26;37.39
52105;BME280;38103;42.776;23.112;2023-04-28T09:05:01;94318.03;;;14.35;35.58
52105;BME280;38103;42.776;23.112;2023-04-28T09:07:27;94313.69;;;14.28;38.11
52105;BME280;38103;42.776;23.112;2023-04-28T09:12:40;94310.84;;;13.68;36.91
52105;BME280;38103;42.776;23.112;2023-04-28T09:15:06;94313.44;;;13.85;36.67
52105;BME280;38103;42.776;23.112;2023-04-28T09:17:49;94309.69;;;13.81;36.81
52105;BME280;38103;42.776;23.112;2023-04-28T09:20:24;94305.34;;;13.74;35.10
52105;BME280;38103;42.776;23.112;2023-04-28T09:22:51;94310.16;;;13.78;40.44
52105;BME280;38103;42.776;23.112;2023-04-28T09:25:18;94298.44;;;13.73;35.06
52105;BME280;38103;42.776;23.112;2023-04-28T09:27:45;94296.94;;;13.83;38.12
52105;BME280;38103;42.776;23.112;2023-04-28T09:30:11;94253.06;;;13.58;39.63
52105;BME280;38103;42.776;23.112;2023-04-28T09:32:37;94295.88;;;13.84;39.18
52105;BME280;38103;42.776;23.112;2023-04-28T09:35:02;94278.81;;;13.57;38.91
52105;BME280;38103;42.776;23.112;2023-04-28T09:37:29;94268.22;;;13.40;37.07
52105;BME280;38103;42.776;23.112;2023-04-28T09:40:04;94278.16;;;13.67;37.83
52105;BME280;38103;42.776;23.112;2023-04-28T09:44:59;94279.56;;;13.75;37.60
52105;BME280;38103;42.776;23.112;2023-04-28T09:47:26;94266.56;;;13.73;35.53
52105;BME280;38103;42.776;23.112;2023-04-28T09:49:55;94256.22;;;13.37;39.54
52105;BME280;38103;42.776;23.112;2023-04-28T09:52:22;94269.00;;;13.58;40.92
52105;BME280;38103;42.776;23.112;2023-04-28T09:54:53;94272.97;;;13.78;36.56
52105;BME280;38103;42.776;23.112;2023-04-28T09:57:20;94261.03;;;13.80;38.46
52105;BME280;38103;42.776;23.112;2023-04-28T09:59:47;94264.06;;;13.89;34.96
52105;BME280;38103;42.776;23.112;2023-04-28T10:02:14;94245.28;;;13.56;33.91
52105;BME280;38103;42.776;23.112;2023-04-28T10:04:45;94267.84;;;13.71;35.18
52105;BME280;38103;42.776;23.112;2023-04-28T10:07:12;94265.41;;;13.69;32.98
52105;BME280;38103;42.776;23.112;2023-04-28T10:09:39;94266.78;;;13.72;38.84
52105;BME280;38103;42.776;23.112;2023-04-28T10:12:11;94260.78;;;13.82;34.64
52105;BME280;38103;42.776;23.112;2023-04-28T10:14:37;94216.50;;;13.65;33.45
52105;BME280;38103;42.776;23.112;2023-04-28T10:17:03;94254.66;;;13.81;32.87
52105;BME280;38103;42.776;23.112;2023-04-28T10:19:29;94226.63;;;13.68;36.94
52105;BME280;38103;42.776;23.112;2023-04-28T10:22:41;94257.75;;;13.95;39.67
52105;BME280;38103;42.776;23.112;2023-04-28T10:27:37;94234.84;;;13.49;35.24
52105;BME280;38103;42.776;23.112;2023-04-28T10:30:13;94240.88;;;13.62;36.67
52105;BME280;38103;42.776;23.112;2023-04-28T10:32:40;94239.53;;;12.85;32.03
52105;BME280;38103;42.776;23.112;2023-04-28T10:38:23;94203.34;;;12.96;39.71
52105;BME280;38103;42.776;23.112;2023-04-28T10:40:50;94233.19;;;13.43;36.02
52105;BME280;38103;42.776;23.112;2023-04-28T10:56:13;94203.91;;;14.05;33.90
52105;BME280;38103;42.776;23.112;2023-04-28T10:58:41;94204.38;;;14.25;38.52
52105;BME280;38103;42.776;23.112;2023-04-28T11:06:20;94194.75;;;14.51;34.63
52105;BME280;38103;42.776;23.112;2023-04-28T11:08:59;94188.13;;;14.54;35.11
52105;BME280;38103;42.776;23.112;2023-04-28T11:11:27;94155.34;;;14.15;35.88
52105;BME280;38103;42.776;23.112;2023-04-28T11:17:07;94186.53;;;14.53;34.45
52105;BME280;38103;42.776;23.112;2023-04-28T11:24:36;94174.03;;;14.87;37.13
52105;BME280;38103;42.776;23.112;2023-04-28T11:27:01;94177.22;;;14.89;37.16
52105;BME280;38103;42.776;23.112;2023-04-28T11:29:36;94169.38;;;14.77;35.47
52105;BME280;38103;42.776;23.112;2023-04-28T11:32:03;94164.16;;;14.87;37.19
52105;BME280;38103;42.776;23.112;2023-04-28T11:34:29;94150.50;;;14.78;36.66
52105;BME280;38103;42.776;23.112;2023-04-28T11:36:54;94159.16;;;14.96;36.34
52105;BME280;38103;42.776;23.112;2023-04-28T11:39:30;94144.25;;;14.95;34.48
52105;BME280;38103;42.776;23.112;2023-04-28T11:42:16;94152.91;;;15.23;35.08
52105;BME280;38103;42.776;23.112;2023-04-28T11:44:49;94148.13;;;15.20;33.83
52105;BME280;38103;42.776;23.112;2023-04-28T11:47:15;94144.72;;;15.30;32.95
52105;BME280;38103;42.776;23.112;2023-04-28T11:49:44;94139.59;;;15.23;31.86
52105;BME280;38103;42.776;23.112;2023-04-28T11:52:10;94148.38;;;15.18;36.05
52105;BME280;38103;42.776;23.112;2023-04-28T11:54:36;94138.28;;;15.26;35.79
52105;BME280;38103;42.776;23.112;2023-04-28T11:57:03;94131.03;;;15.11;35.39
52105;BME280;38103;42.776;23.112;2023-04-28T11:59:34;94100.03;;;14.89;35.52
52105;BME280;38103;42.776;23.112;2023-04-28T12:02:02;94148.84;;;15.05;33.16
52105;BME280;38103;42.776;23.112;2023-04-28T12:07:15;94144.88;;;15.07;32.39
52105;BME280;38103;42.776;23.112;2023-04-28T12:14:53;94134.31;;;14.47;37.75
52105;BME280;38103;42.776;23.112;2023-04-28T12:17:26;94127.53;;;14.67;36.99
52105;BME280;38103;42.776;23.112;2023-04-28T12:19:55;94126.56;;;14.78;33.26
52105;BME280;38103;42.776;23.112;2023-04-28T12:22:21;94114.34;;;14.82;35.02
52105;BME280;38103;42.776;23.112;2023-04-28T12:25:03;94111.13;;;14.80;32.98
52105;BME280;38103;42.776;23.112;2023-04-28T12:27:29;94128.28;;;14.95;33.65
52105;BME280;38103;42.776;23.112;2023-04-28T12:29:55;94110.19;;;14.92;33.90
52105;BME280;38103;42.776;23.112;2023-04-28T12:32:39;94117.69;;;15.05;35.93
52105;BME280;38103;42.776;23.112;2023-04-28T12:35:05;94119.84;;;15.14;36.09
52105;BME280;38103;42.776;23.112;2023-04-28T12:37:31;94123.06;;;15.16;33.40
52105;BME280;38103;42.776;23.112;2023-04-28T12:39:57;94119.41;;;15.27;34.82
52105;BME280;38103;42.776;23.112;2023-04-28T12:42:23;94110.38;;;15.39;33.62
52105;BME280;38103;42.776;23.112;2023-04-28T12:44:48;94107.16;;;15.37;32.14
52105;BME280;38103;42.776;23.112;2023-04-28T12:47:15;94104.28;;;15.49;33.94
52105;BME280;38103;42.776;23.112;2023-04-28T12:49:42;94105.63;;;15.57;35.58
52105;BME280;38103;42.776;23.112;2023-04-28T12:52:08;94097.13;;;15.65;32.18
52105;BME280;38103;42.776;23.112;2023-04-28T12:54:34;94092.31;;;15.62;31.78
52105;BME280;38103;42.776;23.112;2023-04-28T12:57:00;94097.63;;;15.57;34.37
52105;BME280;38103;42.776;23.112;2023-04-28T12:59:26;94091.50;;;15.46;33.70
52105;BME280;38103;42.776;23.112;2023-04-28T13:01:51;94092.84;;;15.53;32.27
52105;BME280;38103;42.776;23.112;2023-04-28T13:04:17;94072.28;;;15.49;34.74
52105;BME280;38103;42.776;23.112;2023-04-28T13:06:43;94093.41;;;15.71;36.30
52105;BME280;38103;42.776;23.112;2023-04-28T13:09:15;94093.16;;;15.83;32.34
52105;BME280;38103;42.776;23.112;2023-04-28T13:11:41;94047.31;;;15.71;33.17
52105;BME280;38103;42.776;23.112;2023-04-28T13:14:07;94080.63;;;15.79;33.01
52105;BME280;38103;42.776;23.112;2023-04-28T13:16:33;94081.16;;;15.75;32.92
52105;BME280;38103;42.776;23.112;2023-04-28T13:18:59;94069.97;;;15.73;34.59
52105;BME280;38103;42.776;23.112;2023-04-28T13:21:25;94078.97;;;15.57;32.71
52105;BME280;38103;42.776;23.112;2023-04-28T13:23:52;94077.38;;;15.50;33.20
52105;BME280;38103;42.776;23.112;2023-04-28T13:26:18;94087.72;;;15.41;31.98
52105;BME280;38103;42.776;23.112;2023-04-28T13:28:46;94037.28;;;15.08;33.74
52105;BME280;38103;42.776;23.112;2023-04-28T13:31:12;94073.63;;;15.46;33.52
52105;BME280;38103;42.776;23.112;2023-04-28T13:33:37;94067.47;;;15.35;30.91
52105;BME280;38103;42.776;23.112;2023-04-28T13:36:03;94032.53;;;15.16;32.10
52105;BME280;38103;42.776;23.112;2023-04-28T13:38:29;94068.28;;;15.36;30.99
52105;BME280;38103;42.776;23.112;2023-04-28T13:40:54;94064.53;;;15.37;32.52
52105;BME280;38103;42.776;23.112;2023-04-28T13:43:20;94067.19;;;15.32;33.11
52105;BME280;38103;42.776;23.112;2023-04-28T13:45:45;94073.06;;;15.39;33.40
52105;BME280;38103;42.776;23.112;2023-04-28T13:48:11;94062.44;;;15.44;29.82
52105;BME280;38103;42.776;23.112;2023-04-28T13:50:36;94059.50;;;15.40;32.95
52105;BME280;38103;42.776;23.112;2023-04-28T13:53:02;94057.66;;;15.41;33.21
52105;BME280;38103;42.776;23.112;2023-04-28T13:55:28;94061.38;;;15.45;32.58
52105;BME280;38103;42.776;23.112;2023-04-28T13:57:54;94060.03;;;15.37;30.00
52105;BME280;38103;42.776;23.112;2023-04-28T14:00:19;94057.63;;;15.36;32.05
52105;BME280;38103;42.776;23.112;2023-04-28T14:02:45;94065.59;;;15.25;31.35
52105;BME280;38103;42.776;23.112;2023-04-28T14:05:13;94054.66;;;15.27;31.17
52105;BME280;38103;42.776;23.112;2023-04-28T14:07:39;94065.63;;;15.30;31.18
52105;BME280;38103;42.776;23.112;2023-04-28T14:10:05;94061.38;;;15.40;32.99
52105;BME280;38103;42.776;23.112;2023-04-28T14:12:30;94052.56;;;15.39;32.44
52105;BME280;38103;42.776;23.112;2023-04-28T14:14:56;94063.47;;;15.27;33.30
52105;BME280;38103;42.776;23.112;2023-04-28T14:17:21;94054.66;;;15.27;32.74
52105;BME280;38103;42.776;23.112;2023-04-28T14:19:47;94048.00;;;15.29;33.30
52105;BME280;38103;42.776;23.112;2023-04-28T14:22:12;94049.09;;;15.34;32.18
52105;BME280;38103;42.776;23.112;2023-04-28T14:24:37;94053.63;;;15.44;32.26
52105;BME280;38103;42.776;23.112;2023-04-28T14:27:03;94049.66;;;15.41;33.15
52105;BME280;38103;42.776;23.112;2023-04-28T14:29:28;94041.66;;;15.51;32.87
52105;BME280;38103;42.776;23.112;2023-04-28T14:31:54;94047.00;;;15.51;32.72
52105;BME280;38103;42.776;23.112;2023-04-28T14:34:19;94051.25;;;15.42;32.94
52105;BME280;38103;42.776;23.112;2023-04-28T14:36:45;94041.09;;;15.39;31.27
52105;BME280;38103;42.776;23.112;2023-04-28T14:39:12;94041.09;;;15.34;32.70
52105;BME280;38103;42.776;23.112;2023-04-28T14:41:37;94035.78;;;15.39;30.45
52105;BME280;38103;42.776;23.112;2023-04-28T14:44:02;94036.88;;;15.43;30.77
52105;BME280;38103;42.776;23.112;2023-04-28T14:46:28;94033.66;;;15.46;31.66
52105;BME280;38103;42.776;23.112;2023-04-28T14:48:54;94040.59;;;15.42;32.24
52105;BME280;38103;42.776;23.112;2023-04-28T14:51:19;94029.38;;;15.35;30.35
52105;BME280;38103;42.776;23.112;2023-04-28T14:53:45;94035.19;;;15.21;32.39
52105;BME280;38103;42.776;23.112;2023-04-28T14:56:11;94029.34;;;15.24;32.12
52105;BME280;38103;42.776;23.112;2023-04-28T14:58:36;94030.41;;;15.23;30.94
52105;BME280;38103;42.776;23.112;2023-04-28T15:01:02;94034.66;;;15.14;32.38
52105;BME280;38103;42.776;23.112;2023-04-28T15:03:28;94027.13;;;14.95;32.49
52105;BME280;38103;42.776;23.112;2023-04-28T15:05:54;94024.66;;;14.83;32.68